createdAt,value
2022-09-10T00:02:45.246Z,15.70
2022-09-10T00:06:47.248Z,15.69
2022-09-10T00:10:52.042Z,15.71
2022-09-10T00:14:54.353Z,15.70
2022-09-10T00:19:01.021Z,15.68
2022-09-10T00:23:03.194Z,15.65
2022-09-10T00:27:05.207Z,15.70
2022-09-10T00:31:07.410Z,15.77
2022-09-10T00:35:09.423Z,15.84
2022-09-10T00:39:17.599Z,15.86
2022-09-10T00:43:21.757Z,15.82
2022-09-10T00:47:29.035Z,15.73
2022-09-10T00:51:33.127Z,15.72
2022-09-10T00:55:38.301Z,15.70
2022-09-10T00:59:43.498Z,15.73
2022-09-10T01:03:46.502Z,15.78
2022-09-10T01:07:49.032Z,15.85
2022-09-10T01:12:26.491Z,15.90
2022-09-10T01:16:36.843Z,15.90
2022-09-10T01:21:03.988Z,15.95
2022-09-10T01:25:31.285Z,15.99
2022-09-10T01:29:39.076Z,16.01
2022-09-10T01:33:49.091Z,15.97
2022-09-10T01:37:55.266Z,15.90
2022-09-10T01:41:58.842Z,15.78
2022-09-10T01:46:44.723Z,15.71
2022-09-10T01:51:16.553Z,15.69
2022-09-10T01:55:51.009Z,15.61
2022-09-10T02:00:14.583Z,15.46
2022-09-10T02:04:19.629Z,15.39
2022-09-10T02:08:30.005Z,15.34
2022-09-10T02:12:33.197Z,15.33
2022-09-10T02:17:05.572Z,15.31
2022-09-10T02:21:10.195Z,15.32
2022-09-10T02:25:12.380Z,15.31
2022-09-10T02:29:16.920Z,15.31
2022-09-10T02:33:20.077Z,15.33
2022-09-10T02:37:24.246Z,15.30
2022-09-10T02:41:26.572Z,15.28
2022-09-10T02:45:30.056Z,15.30
2022-09-10T02:49:34.658Z,15.33
2022-09-10T02:53:37.329Z,15.35
2022-09-10T02:57:40.390Z,15.40
2022-09-10T03:01:42.546Z,15.41
2022-09-10T03:05:44.915Z,15.42
2022-09-10T03:09:47.380Z,15.43
2022-09-10T03:13:50.806Z,15.42
2022-09-10T03:17:53.031Z,15.40
2022-09-10T03:21:55.225Z,15.39
2022-09-10T03:25:57.330Z,15.40
2022-09-10T03:30:01.293Z,15.40
2022-09-10T03:34:06.642Z,15.38
2022-09-10T03:38:08.625Z,15.34
2022-09-10T03:42:11.062Z,15.33
2022-09-10T03:46:13.124Z,15.33
2022-09-10T03:50:18.401Z,15.34
2022-09-10T03:54:20.726Z,15.35
2022-09-10T03:58:23.286Z,15.40
2022-09-10T04:02:26.878Z,15.36
2022-09-10T04:06:28.994Z,15.29
2022-09-10T04:10:31.157Z,15.24
2022-09-10T04:14:34.363Z,15.25
2022-09-10T04:18:37.887Z,15.25
2022-09-10T04:22:39.990Z,15.24
2022-09-10T04:26:42.117Z,15.25
2022-09-10T04:30:47.011Z,15.26
2022-09-10T04:34:49.593Z,15.24
2022-09-10T04:38:53.077Z,15.23
2022-09-10T04:42:55.183Z,15.22
2022-09-10T04:46:57.300Z,15.22
2022-09-10T04:51:15.856Z,15.24
2022-09-10T04:55:20.634Z,15.30
2022-09-10T04:59:22.993Z,15.34
2022-09-10T05:03:25.120Z,15.38
2022-09-10T05:07:28.413Z,15.40
2022-09-10T05:11:31.386Z,15.40
2022-09-10T05:15:35.057Z,15.43
2022-09-10T05:19:39.453Z,15.45
2022-09-10T05:23:44.225Z,15.47
2022-09-10T05:27:46.534Z,15.50
2022-09-10T05:31:53.294Z,15.50
2022-09-10T05:35:55.528Z,15.56
2022-09-10T05:39:57.784Z,15.61
2022-09-10T05:44:00.436Z,15.61
2022-09-10T05:48:04.037Z,15.60
2022-09-10T05:52:06.270Z,15.63
2022-09-10T05:56:09.227Z,15.63
2022-09-10T06:00:12.612Z,15.63
2022-09-10T06:04:24.195Z,15.66
2022-09-10T06:08:26.420Z,15.74
2022-09-10T06:12:29.602Z,15.83
2022-09-10T06:16:32.673Z,15.85
2022-09-10T06:20:36.974Z,15.92
2022-09-10T06:24:40.898Z,15.99
2022-09-10T06:28:43.385Z,16.07
2022-09-10T06:32:46.405Z,16.26
2022-09-10T06:36:49.374Z,16.65
2022-09-10T06:40:56.598Z,17.16
2022-09-10T06:45:00.062Z,17.37
2022-09-10T06:49:31.116Z,17.34
2022-09-10T06:53:33.646Z,17.40
2022-09-10T06:57:36.986Z,17.60
2022-09-10T07:01:39.325Z,17.80
2022-09-10T07:05:42.486Z,17.93
2022-09-10T07:09:44.581Z,17.96
2022-09-10T07:13:52.157Z,17.74
2022-09-10T07:17:56.457Z,17.53
2022-09-10T07:21:58.726Z,17.39
2022-09-10T07:26:06.315Z,17.48
2022-09-10T07:30:14.195Z,17.98
2022-09-10T07:34:16.368Z,18.12
2022-09-10T07:38:20.525Z,18.06
2022-09-10T07:42:25.251Z,18.07
2022-09-10T07:46:28.336Z,18.05
2022-09-10T07:50:31.552Z,17.85
2022-09-10T07:54:34.873Z,17.62
2022-09-10T07:58:38.309Z,17.54
2022-09-10T08:02:46.833Z,17.65
2022-09-10T08:06:53.293Z,17.85
2022-09-10T08:10:55.669Z,18.01
2022-09-10T08:14:58.786Z,18.02
2022-09-10T08:19:02.687Z,18.02
2022-09-10T08:23:07.827Z,18.03
2022-09-10T08:27:11.615Z,18.04
2022-09-10T08:31:13.941Z,18.04
2022-09-10T08:35:24.078Z,18.02
2022-09-10T08:39:26.505Z,18.06
2022-09-10T08:43:38.137Z,18.15
2022-09-10T08:48:18.939Z,18.33
2022-09-10T08:52:40.560Z,18.39
2022-09-10T08:56:49.393Z,18.49
2022-09-10T09:00:57.680Z,18.49
2022-09-10T09:05:21.098Z,18.34
2022-09-10T09:09:25.898Z,18.35
2022-09-10T09:13:44.242Z,18.36
2022-09-10T09:18:10.876Z,18.44
2022-09-10T09:22:29.201Z,18.52
2022-09-10T09:26:35.995Z,18.53
2022-09-10T09:30:49.345Z,18.58
2022-09-10T09:34:56.921Z,18.66
2022-09-10T09:38:59.496Z,18.80
2022-09-10T09:43:13.213Z,18.88
2022-09-10T09:47:15.495Z,19.04
2022-09-10T09:51:21.201Z,19.23
2022-09-10T09:55:40.181Z,19.23
2022-09-10T09:59:42.234Z,19.22
2022-09-10T10:03:55.004Z,19.27
2022-09-10T10:07:57.288Z,19.30
2022-09-10T10:12:04.588Z,19.36
2022-09-10T10:16:24.050Z,19.26
2022-09-10T10:20:38.807Z,19.08
2022-09-10T10:24:42.473Z,18.94
2022-09-10T10:29:06.515Z,18.87
2022-09-10T10:33:18.117Z,18.94
2022-09-10T10:37:42.944Z,19.06
2022-09-10T10:41:58.664Z,19.15
2022-09-10T10:46:20.800Z,19.09
2022-09-10T10:50:53.248Z,18.96
2022-09-10T10:55:04.043Z,18.93
2022-09-10T10:59:33.055Z,19.15
2022-09-10T11:03:44.189Z,19.39
2022-09-10T11:07:47.280Z,19.56
2022-09-10T11:12:08.841Z,19.84
2022-09-10T11:16:21.600Z,20.05
2022-09-10T11:20:34.915Z,20.02
2022-09-10T11:24:50.027Z,20.07
2022-09-10T11:29:04.360Z,20.19
2022-09-10T11:33:19.933Z,20.05
2022-09-10T11:37:57.720Z,20.05
2022-09-10T11:42:10.224Z,20.12
2022-09-10T11:46:21.262Z,20.30
2022-09-10T11:50:33.882Z,20.58
2022-09-10T11:54:38.947Z,21.02
2022-09-10T11:58:56.055Z,21.42
2022-09-10T12:03:22.071Z,21.68
2022-09-10T12:07:44.382Z,22.14
2022-09-10T12:11:52.125Z,22.29
2022-09-10T12:15:59.685Z,22.19
2022-09-10T12:20:05.713Z,22.33
2022-09-10T12:24:37.639Z,22.44
2022-09-10T12:28:42.749Z,22.54
2022-09-10T12:32:44.774Z,22.53
2022-09-10T12:36:49.780Z,22.32
2022-09-10T12:40:51.898Z,22.02
2022-09-10T12:44:54.104Z,22.00
2022-09-10T12:48:56.068Z,22.17
2022-09-10T12:53:16.666Z,22.26
2022-09-10T12:57:41.740Z,22.01
2022-09-10T13:01:47.545Z,21.58
2022-09-10T13:05:51.518Z,21.47
2022-09-10T13:10:01.414Z,21.60
2022-09-10T13:14:05.263Z,21.85
2022-09-10T13:18:23.669Z,22.01
2022-09-10T13:22:53.605Z,22.07
2022-09-10T13:27:21.238Z,22.20
2022-09-10T13:31:26.746Z,22.13
2022-09-10T13:36:11.314Z,21.80
2022-09-10T13:40:41.498Z,21.35
2022-09-10T13:44:49.370Z,21.07
2022-09-10T13:48:57.239Z,20.79
2022-09-10T13:53:01.137Z,20.53
2022-09-10T13:57:17.812Z,20.20
2022-09-10T14:01:19.898Z,19.86
2022-09-10T14:05:23.079Z,19.65
2022-09-10T14:09:26.062Z,19.44
2022-09-10T14:13:34.882Z,19.35
2022-09-10T14:18:03.400Z,19.18
2022-09-10T14:22:09.824Z,19.17
2022-09-10T14:26:30.280Z,19.21
2022-09-10T14:30:32.912Z,19.31
2022-09-10T14:34:38.110Z,19.17
2022-09-10T14:38:42.399Z,19.03
2022-09-10T14:42:46.036Z,18.89
2022-09-10T14:46:49.301Z,18.76
2022-09-10T14:51:01.733Z,18.50
2022-09-10T14:55:03.958Z,18.35
2022-09-10T14:59:10.547Z,18.29
2022-09-10T15:03:15.820Z,18.26
2022-09-10T15:07:17.878Z,18.29
2022-09-10T15:11:25.629Z,18.37
2022-09-10T15:15:29.708Z,18.49
2022-09-10T15:19:31.995Z,18.64
2022-09-10T15:23:34.653Z,18.93
2022-09-10T15:27:36.871Z,19.23
2022-09-10T15:31:39.299Z,19.33
2022-09-10T15:35:41.622Z,19.35
2022-09-10T15:39:43.793Z,19.33
2022-09-10T15:43:46.022Z,19.26
2022-09-10T15:47:48.039Z,19.30
2022-09-10T15:51:50.009Z,19.32
2022-09-10T15:55:53.061Z,19.31
2022-09-10T15:59:55.394Z,19.15
2022-09-10T16:04:02.648Z,19.01
2022-09-10T16:08:04.569Z,18.88
2022-09-10T16:12:06.606Z,18.78
2022-09-10T16:16:11.992Z,18.62
2022-09-10T16:20:14.072Z,18.37
2022-09-10T16:24:16.063Z,18.16
2022-09-10T16:28:18.791Z,18.11
2022-09-10T16:32:20.819Z,18.02
2022-09-10T16:36:23.546Z,17.93
2022-09-10T16:40:25.718Z,17.87
2022-09-10T16:44:28.705Z,17.82
2022-09-10T16:48:34.407Z,17.77
2022-09-10T16:52:36.696Z,17.71
2022-09-10T16:56:42.022Z,17.61
2022-09-10T17:00:45.176Z,17.55
2022-09-10T17:04:47.861Z,17.53
2022-09-10T17:08:51.055Z,17.49
2022-09-10T17:12:53.332Z,17.47
2022-09-10T17:16:56.218Z,17.52
2022-09-10T17:20:58.232Z,17.56
2022-09-10T17:25:00.226Z,17.57
2022-09-10T17:29:07.985Z,17.59
2022-09-10T17:33:09.990Z,17.58
2022-09-10T17:37:11.994Z,17.58
2022-09-10T17:41:14.636Z,17.55
2022-09-10T17:45:16.770Z,17.52
2022-09-10T17:49:18.754Z,17.47
2022-09-10T17:53:20.891Z,17.43
2022-09-10T17:57:22.912Z,17.40
2022-09-10T18:01:27.879Z,17.37
2022-09-10T18:05:29.893Z,17.31
2022-09-10T18:09:31.905Z,17.28
2022-09-10T18:13:35.489Z,17.29
2022-09-10T18:17:37.991Z,17.26
2022-09-10T18:21:40.762Z,17.23
2022-09-10T18:25:47.911Z,17.18
2022-09-10T18:29:51.750Z,17.12
2022-09-10T18:33:54.516Z,17.09
2022-09-10T18:37:57.179Z,17.04
2022-09-10T18:42:03.409Z,16.98
2022-09-10T18:46:05.796Z,16.89
2022-09-10T18:50:08.280Z,16.88
2022-09-10T18:54:12.788Z,16.87
2022-09-10T18:58:14.776Z,16.81
2022-09-10T19:02:17.797Z,16.71
2022-09-10T19:06:25.418Z,16.67
2022-09-10T19:10:29.419Z,16.61
2022-09-10T19:14:32.763Z,16.60
2022-09-10T19:18:34.762Z,16.60
2022-09-10T19:22:37.660Z,16.59
2022-09-10T19:26:39.731Z,16.59
2022-09-10T19:30:41.735Z,16.59
2022-09-10T19:34:44.291Z,16.59
2022-09-10T19:38:46.957Z,16.59
2022-09-10T19:42:48.969Z,16.62
2022-09-10T19:46:51.006Z,16.61
2022-09-10T19:50:53.339Z,16.60
2022-09-10T19:54:55.321Z,16.61
2022-09-10T19:58:57.799Z,16.65
2022-09-10T20:02:59.979Z,16.67
2022-09-10T20:07:01.959Z,16.67
2022-09-10T20:11:06.226Z,16.67
2022-09-10T20:15:08.587Z,16.65
2022-09-10T20:19:13.048Z,16.60
2022-09-10T20:23:15.217Z,16.53
2022-09-10T20:27:17.312Z,16.47
2022-09-10T20:31:20.856Z,16.41
2022-09-10T20:35:22.914Z,16.43
2022-09-10T20:39:25.289Z,16.40
2022-09-10T20:43:28.254Z,16.40
2022-09-10T20:47:31.325Z,16.36
2022-09-10T20:51:38.746Z,16.36
2022-09-10T20:55:40.772Z,16.38
2022-09-10T20:59:44.046Z,16.37
2022-09-10T21:03:47.969Z,16.36
2022-09-10T21:07:50.529Z,16.37
2022-09-10T21:11:52.510Z,16.37
2022-09-10T21:15:54.555Z,16.34
2022-09-10T21:19:57.100Z,16.36
2022-09-10T21:24:01.720Z,16.35
2022-09-10T21:28:03.685Z,16.32
2022-09-10T21:32:05.966Z,16.31
2022-09-10T21:36:11.883Z,16.27
2022-09-10T21:40:14.022Z,16.22
2022-09-10T21:44:19.643Z,16.24
2022-09-10T21:48:21.757Z,16.24
2022-09-10T21:52:23.946Z,16.20
2022-09-10T21:56:27.630Z,16.18
2022-09-10T22:00:31.064Z,16.14
2022-09-10T22:04:33.047Z,16.09
2022-09-10T22:08:36.302Z,16.02
2022-09-10T22:12:38.315Z,15.91
2022-09-10T22:16:40.347Z,15.83
2022-09-10T22:20:42.336Z,15.81
2022-09-10T22:24:44.339Z,15.80
2022-09-10T22:28:47.119Z,15.85
2022-09-10T22:32:49.083Z,15.92
2022-09-10T22:36:51.081Z,16.03
2022-09-10T22:40:53.543Z,16.05
2022-09-10T22:44:56.756Z,16.06
2022-09-10T22:48:59.461Z,16.08
2022-09-10T22:53:01.452Z,16.12
2022-09-10T22:57:03.541Z,16.12
2022-09-10T23:01:12.270Z,16.10
2022-09-10T23:05:14.408Z,16.09
2022-09-10T23:09:17.800Z,16.03
2022-09-10T23:13:20.235Z,15.97
2022-09-10T23:17:22.744Z,15.99
2022-09-10T23:21:26.988Z,15.97
2022-09-10T23:25:28.997Z,15.96
2022-09-10T23:29:31.106Z,15.98
2022-09-10T23:33:33.079Z,15.97
2022-09-10T23:37:35.120Z,15.94
2022-09-10T23:41:37.152Z,15.92
2022-09-10T23:45:39.147Z,15.94
2022-09-10T23:49:41.141Z,15.94
2022-09-10T23:53:46.691Z,15.91
2022-09-10T23:57:48.796Z,15.91
